Time;durP1;ratioP1;P1;durP2;ratioP2;P2;SDS_P1;SDS_P2;PMS_P1;PMS_P2;Temp;Humidity;BMP_temperature;BMP_pressure;BME280_temperature;BME280_humidity;BME280_pressure;Samples;Min_cycle;Max_cycle;Signal;HPM_P1;HPM_P2
2022/11/20 00:02:37;;;;;;;18.97;15.50;;;;;;;5.51;57.75;97411.38;8381694;28;20228;-75
2022/11/20 00:06:42;;;;;;;20.50;16.63;;;;;;;5.83;57.45;97410.31;8381332;28;20270;-75
2022/11/20 00:10:44;;;;;;;19.27;15.33;;;;;;;5.62;57.70;97412.72;8381291;28;20336;-75
2022/11/20 00:14:47;;;;;;;20.20;16.00;;;;;;;5.63;57.89;97408.41;8381308;28;20278;-75
2022/11/20 00:18:50;;;;;;;20.47;15.67;;;;;;;5.57;57.37;97403.47;8381132;28;20544;-75
2022/11/20 00:22:54;;;;;;;19.33;15.73;;;;;;;5.65;57.48;97396.34;8380787;28;20225;-75
2022/11/20 00:26:57;;;;;;;21.63;16.53;;;;;;;5.64;58.30;97408.34;8381128;28;20228;-75
2022/11/20 00:31:03;;;;;;;18.83;15.00;;;;;;;5.72;57.89;97407.25;8380665;28;20282;-75
2022/11/20 00:35:07;;;;;;;20.90;16.10;;;;;;;5.59;58.01;97410.22;8380718;28;20279;-75
2022/11/20 00:39:11;;;;;;;19.73;15.73;;;;;;;5.63;57.58;97398.97;8380672;28;20231;-75
2022/11/20 00:43:13;;;;;;;18.87;15.70;;;;;;;5.56;57.73;97418.06;8380462;28;20230;-75
2022/11/20 00:47:16;;;;;;;20.53;16.67;;;;;;;5.70;57.92;97417.59;8380359;28;20271;-75
2022/11/20 00:51:20;;;;;;;18.33;15.47;;;;;;;5.54;57.97;97417.25;8380350;28;20224;-75
2022/11/20 00:55:24;;;;;;;20.07;16.73;;;;;;;5.53;57.62;97417.31;8380358;28;20280;-75
2022/11/20 00:59:27;;;;;;;18.50;15.67;;;;;;;5.68;57.58;97420.19;8380250;28;20221;-75
2022/11/20 01:03:31;;;;;;;17.53;14.50;;;;;;;4.98;59.40;97425.84;8379919;28;20225;-75
2022/11/20 01:07:34;;;;;;;19.20;14.97;;;;;;;5.57;57.48;97413.75;8379809;28;20547;-75
2022/11/20 01:11:40;;;;;;;18.03;15.07;;;;;;;5.09;58.00;97415.28;8379942;28;20569;-75
2022/11/20 01:15:43;;;;;;;17.93;15.20;;;;;;;5.61;57.45;97415.31;8379876;28;20228;-75
2022/11/20 01:19:45;;;;;;;18.37;14.43;;;;;;;5.52;57.62;97415.63;8379918;28;20547;-75
2022/11/20 01:23:49;;;;;;;20.43;15.67;;;;;;;5.53;57.30;97410.44;8379761;28;20524;-75
2022/11/20 01:27:54;;;;;;;19.60;15.57;;;;;;;5.49;57.65;97416.56;8379239;28;20228;-76
2022/11/20 01:31:56;;;;;;;20.10;15.97;;;;;;;5.45;57.83;97422.69;8379652;28;20240;-75
2022/11/20 01:36:05;;;;;;;18.97;14.93;;;;;;;5.52;57.69;97413.91;8379643;28;20559;-76
2022/11/20 01:40:09;;;;;;;19.37;15.27;;;;;;;5.48;58.41;97409.75;8379524;28;20296;-75
2022/11/20 01:44:14;;;;;;;19.50;15.43;;;;;;;5.54;58.23;97414.69;8379274;28;20301;-75
2022/11/20 01:48:18;;;;;;;19.13;14.83;;;;;;;5.57;59.00;97419.72;8379379;28;20232;-75
2022/11/20 01:52:24;;;;;;;20.90;16.50;;;;;;;5.61;57.73;97408.44;8379381;28;20253;-75
2022/11/20 01:56:28;;;;;;;20.57;16.27;;;;;;;5.62;57.32;97414.44;8379306;28;20232;-75
2022/11/20 02:00:32;;;;;;;20.03;15.83;;;;;;;5.57;57.99;97408.63;8379263;28;20278;-75
2022/11/20 02:04:35;;;;;;;19.90;15.70;;;;;;;5.65;57.84;97410.03;8378985;28;20228;-75
2022/11/20 02:08:38;;;;;;;18.43;15.03;;;;;;;5.60;58.44;97417.06;8379032;28;20515;-75
2022/11/20 02:17:03;;;;;;;23.63;17.97;;;;;;;5.46;58.93;97412.38;8384061;28;20252;-75
2022/11/20 02:21:09;;;;;;;23.40;17.57;;;;;;;5.52;59.25;97405.34;8384733;28;20235;-75
2022/11/20 02:25:13;;;;;;;23.73;17.60;;;;;;;5.43;59.38;97399.63;8384903;28;20229;-76
2022/11/20 02:29:18;;;;;;;21.00;16.97;;;;;;;5.51;59.38;97396.81;8384730;28;20236;-76
2022/11/20 02:33:21;;;;;;;22.10;17.70;;;;;;;5.51;59.40;97399.38;8384433;28;20248;-76
2022/11/20 02:37:27;;;;;;;19.67;16.13;;;;;;;5.72;59.43;97399.56;8384488;28;20225;-76
2022/11/20 02:41:36;;;;;;;25.37;19.00;;;;;;;5.62;58.56;97399.03;8384264;28;20220;-76
2022/11/20 02:45:39;;;;;;;22.43;17.23;;;;;;;5.75;59.53;97408.00;8384126;28;20233;-76
2022/11/20 02:49:41;;;;;;;26.93;20.00;;;;;;;5.47;59.53;97401.22;8384020;28;20237;-76
2022/11/20 02:53:44;;;;;;;25.00;18.63;;;;;;;5.62;59.21;97388.75;8383783;28;20239;-75
2022/11/20 02:57:48;;;;;;;25.27;18.63;;;;;;;5.68;59.13;97393.69;8383874;28;20232;-75
2022/11/20 03:01:51;;;;;;;25.20;18.33;;;;;;;5.68;59.68;97402.22;8383586;28;20232;-75
2022/11/20 03:05:54;;;;;;;22.00;16.97;;;;;;;5.69;59.82;97392.78;8382639;28;20232;-75
2022/11/20 03:09:57;;;;;;;21.90;16.90;;;;;;;5.71;59.30;97391.00;8383448;28;20252;-75
2022/11/20 03:14:03;;;;;;;22.80;16.83;;;;;;;5.64;59.02;97381.84;8383113;28;20229;-75
2022/11/20 03:18:06;;;;;;;22.20;17.50;;;;;;;5.57;59.16;97372.66;8383438;28;20241;-75
2022/11/20 03:22:09;;;;;;;21.90;17.57;;;;;;;5.46;60.12;97378.13;8382904;28;20229;-75
2022/11/20 03:26:14;;;;;;;24.57;17.70;;;;;;;5.46;59.91;97378.13;8382912;28;20235;-75
2022/11/20 03:30:18;;;;;;;22.80;17.70;;;;;;;5.58;59.93;97372.59;8382826;28;20224;-75
2022/11/20 03:34:21;;;;;;;23.47;18.53;;;;;;;5.46;59.73;97368.72;8382273;28;20225;-75
2022/11/20 03:38:24;;;;;;;22.60;17.43;;;;;;;5.54;60.36;97376.16;8382487;28;20231;-75
2022/11/20 03:46:48;;;;;;;23.60;18.10;;;;;;;5.68;59.00;97373.97;8382345;28;20240;-75
2022/11/20 03:50:51;;;;;;;22.87;17.90;;;;;;;5.56;59.80;97371.81;8382097;28;20240;-75
2022/11/20 03:54:53;;;;;;;23.07;17.60;;;;;;;5.58;59.62;97370.03;8381538;28;20224;-75
2022/11/20 03:58:57;;;;;;;22.67;17.40;;;;;;;5.50;59.71;97359.16;8381701;28;20509;-76
2022/11/20 04:03:01;;;;;;;22.07;17.03;;;;;;;5.61;59.25;97359.63;8381595;28;20602;-76
2022/11/20 04:07:04;;;;;;;21.63;17.70;;;;;;;5.47;60.13;97362.69;8381549;28;20443;-76
2022/11/20 04:11:12;;;;;;;21.57;17.17;;;;;;;5.53;59.81;97358.25;8380960;28;20582;-76
2022/11/20 04:15:15;;;;;;;21.00;16.90;;;;;;;5.49;60.23;97362.63;8381367;28;20250;-76
2022/11/20 04:19:19;;;;;;;21.53;17.27;;;;;;;5.55;59.66;97359.84;8381257;28;20228;-75
2022/11/20 04:23:22;;;;;;;23.20;17.50;;;;;;;5.59;59.94;97361.41;8381000;28;20295;-76
2022/11/20 04:27:31;;;;;;;22.57;17.03;;;;;;;5.70;59.73;97353.34;8381013;28;20282;-76
2022/11/20 04:31:35;;;;;;;25.60;19.30;;;;;;;5.69;59.44;97349.09;8380873;28;20224;-75
2022/11/20 04:35:39;;;;;;;24.90;18.37;;;;;;;5.58;60.43;97358.91;8380293;28;20216;-75
2022/11/20 04:39:42;;;;;;;24.17;18.93;;;;;;;5.69;59.32;97338.81;8380704;28;20244;-75
2022/11/20 04:43:47;;;;;;;24.80;19.03;;;;;;;5.57;59.41;97344.41;8380174;28;20240;-75
2022/11/20 04:47:50;;;;;;;24.07;18.43;;;;;;;5.49;59.99;97347.22;8380514;28;20228;-75
2022/11/20 04:51:55;;;;;;;24.23;17.73;;;;;;;5.67;59.86;97340.59;8379924;28;20240;-75
2022/11/20 04:56:01;;;;;;;24.17;18.47;;;;;;;5.76;59.43;97342.03;8380401;28;20254;-75
2022/11/20 05:00:04;;;;;;;22.90;17.93;;;;;;;5.70;59.87;97352.53;8380130;28;20235;-75
2022/11/20 05:04:07;;;;;;;24.80;18.73;;;;;;;5.65;60.21;97350.09;8380205;28;20559;-75
2022/11/20 05:08:12;;;;;;;23.70;18.83;;;;;;;5.69;59.77;97341.38;8380007;28;20248;-75
2022/11/20 05:12:15;;;;;;;24.67;18.23;;;;;;;5.54;60.53;97353.06;8380030;28;20231;-75
2022/11/20 05:16:18;;;;;;;24.27;18.47;;;;;;;5.65;60.44;97343.25;8379710;28;20247;-75
2022/11/20 05:20:22;;;;;;;22.80;17.77;;;;;;;5.49;61.17;97339.53;8379947;28;20243;-75
2022/11/20 05:24:26;;;;;;;25.17;18.67;;;;;;;5.58;60.44;97336.66;8379902;28;20225;-75
2022/11/20 05:28:30;;;;;;;26.83;19.80;;;;;;;5.12;61.11;97335.59;8379898;28;20455;-75
2022/11/20 05:32:33;;;;;;;22.47;17.80;;;;;;;5.55;61.20;97326.47;8378743;28;20239;-75
2022/11/20 05:36:36;;;;;;;21.87;17.50;;;;;;;5.65;60.56;97325.28;8378526;28;20434;-75
2022/11/20 05:40:40;;;;;;;24.97;18.60;;;;;;;5.56;60.78;97328.16;8378544;28;20221;-75
2022/11/20 05:44:43;;;;;;;22.93;16.73;;;;;;;5.70;60.72;97319.97;8378653;28;20427;-75
2022/11/20 05:48:46;;;;;;;24.23;17.93;;;;;;;5.63;60.98;97331.34;8380576;28;20236;-75
2022/11/20 05:52:49;;;;;;;26.27;19.20;;;;;;;5.67;60.83;97328.63;8385332;28;20236;-75
2022/11/20 05:56:53;;;;;;;26.07;19.33;;;;;;;5.73;60.80;97325.00;8385080;28;20224;-75
2022/11/20 06:01:00;;;;;;;25.33;19.23;;;;;;;5.62;60.15;97315.09;8384496;28;20479;-75
2022/11/20 06:05:02;;;;;;;23.30;17.47;;;;;;;5.68;60.62;97314.88;8384510;28;20241;-75
2022/11/20 06:09:05;;;;;;;23.17;17.67;;;;;;;5.72;61.14;97322.47;8385082;28;20225;-75
2022/11/20 06:13:09;;;;;;;23.00;17.73;;;;;;;5.67;60.58;97322.63;8384280;28;20286;-75
2022/11/20 06:17:12;;;;;;;23.80;18.87;;;;;;;5.80;60.34;97320.47;8384419;28;20625;-75
2022/11/20 06:21:16;;;;;;;24.57;18.13;;;;;;;5.44;61.02;97305.44;8384235;28;20224;-76
2022/11/20 06:25:18;;;;;;;23.23;17.63;;;;;;;5.66;60.92;97326.94;8384185;28;20228;-76
2022/11/20 06:29:23;;;;;;;23.00;17.97;;;;;;;5.69;60.55;97328.53;8383902;28;20239;-76
2022/11/20 06:33:28;;;;;;;26.03;19.37;;;;;;;5.66;61.33;97331.25;8383551;28;20235;-76
2022/11/20 06:37:31;;;;;;;27.17;19.33;;;;;;;5.48;61.15;97325.84;8383730;28;20231;-76
2022/11/20 06:41:34;;;;;;;23.57;17.93;;;;;;;5.59;61.31;97325.47;8383618;28;20232;-76
2022/11/20 06:45:38;;;;;;;22.07;16.77;;;;;;;5.44;62.07;97326.00;8383428;28;20286;-75
2022/11/20 06:49:41;;;;;;;23.27;18.13;;;;;;;5.59;61.32;97325.47;8383417;28;20252;-76
2022/11/20 06:53:43;;;;;;;25.57;19.00;;;;;;;5.54;61.26;97329.06;8383045;28;20291;-76
2022/11/20 06:57:46;;;;;;;22.13;16.93;;;;;;;5.70;60.90;97329.41;8382823;28;20618;-75
2022/11/20 07:01:54;;;;;;;27.30;19.60;;;;;;;5.70;60.70;97339.69;8382245;28;20304;-76
2022/11/20 07:05:57;;;;;;;21.17;16.07;;;;;;;5.79;60.91;97334.22;8382516;28;20466;-76
2022/11/20 07:10:00;;;;;;;20.50;16.10;;;;;;;5.83;61.08;97336.63;8382729;28;20427;-74
2022/11/20 07:14:03;;;;;;;23.47;17.63;;;;;;;5.80;60.91;97343.59;8382408;28;20428;-73
2022/11/20 07:18:07;;;;;;;20.80;16.37;;;;;;;5.63;61.49;97345.00;8382341;28;20435;-74
2022/11/20 07:22:10;;;;;;;19.23;15.43;;;;;;;5.94;60.94;97350.81;8382422;28;20228;-75
2022/11/20 07:26:12;;;;;;;21.77;17.03;;;;;;;5.83;60.71;97341.75;8382105;28;20240;-74
2022/11/20 07:30:15;;;;;;;22.60;16.97;;;;;;;5.29;62.23;97299.09;8382143;28;20290;-74
2022/11/20 07:34:20;;;;;;;21.30;16.40;;;;;;;5.85;61.29;97349.41;8382019;28;20235;-74
2022/11/20 07:38:23;;;;;;;28.33;20.73;;;;;;;5.77;60.83;97344.56;8381701;28;20232;-74
2022/11/20 07:42:25;;;;;;;25.13;18.90;;;;;;;5.64;61.86;97359.53;8381933;28;20224;-74
2022/11/20 07:46:28;;;;;;;22.83;17.63;;;;;;;5.97;60.91;97361.84;8381722;28;20229;-74
2022/11/20 07:50:32;;;;;;;22.93;17.33;;;;;;;5.88;60.61;97347.59;8381443;28;20456;-75
2022/11/20 07:54:35;;;;;;;60.77;33.30;;;;;;;5.92;60.97;97348.31;8381223;28;20445;-74
2022/11/20 07:58:38;;;;;;;30.93;22.97;;;;;;;5.83;61.53;97349.47;8381343;28;20235;-74
2022/11/20 08:02:41;;;;;;;32.20;26.00;;;;;;;6.07;61.19;97346.94;8380947;28;20283;-74
2022/11/20 08:06:45;;;;;;;31.33;22.87;;;;;;;5.97;61.31;97341.28;8380624;28;20228;-75
2022/11/20 08:10:48;;;;;;;29.50;21.70;;;;;;;6.02;61.01;97352.25;8379895;28;20228;-75
2022/11/20 08:14:51;;;;;;;27.33;21.13;;;;;;;5.97;61.16;97349.00;8380393;28;20263;-76
2022/11/20 08:18:54;;;;;;;28.50;21.03;;;;;;;6.01;61.55;97357.44;8380203;28;20228;-76
2022/11/20 08:23:01;;;;;;;32.17;23.03;;;;;;;5.97;61.34;97341.28;8380453;28;20232;-76
2022/11/20 08:27:04;;;;;;;30.10;21.07;;;;;;;5.95;61.46;97348.22;8379950;28;20425;-76
2022/11/20 08:31:09;;;;;;;40.47;27.33;;;;;;;5.87;61.47;97345.91;8379500;28;20236;-76
2022/11/20 08:35:12;;;;;;;33.30;25.27;;;;;;;5.71;62.56;97333.63;8379714;28;20458;-76
2022/11/20 08:39:17;;;;;;;25.67;20.37;;;;;;;5.98;61.17;97342.16;8379102;28;20266;-76
2022/11/20 08:43:19;;;;;;;24.80;18.97;;;;;;;6.08;61.63;97340.91;8379249;28;20250;-75
2022/11/20 08:47:22;;;;;;;33.20;24.83;;;;;;;6.30;61.50;97325.53;8378332;28;20516;-75
2022/11/20 08:51:25;;;;;;;38.63;29.47;;;;;;;6.04;61.74;97341.94;8378621;28;20225;-74
2022/11/20 08:55:29;;;;;;;41.43;30.83;;;;;;;6.18;61.71;97341.41;8378707;28;20231;-75
2022/11/20 08:59:32;;;;;;;36.20;25.73;;;;;;;6.25;61.74;97345.44;8378283;28;20229;-74
2022/11/20 09:03:56;;;;;;;35.97;25.00;;;;;;;6.35;61.46;97336.47;8377843;28;20311;-75
2022/11/20 09:07:59;;;;;;;34.90;27.47;;;;;;;6.23;61.44;97331.81;8376927;28;20233;-76
2022/11/20 09:12:03;;;;;;;31.53;24.30;;;;;;;6.22;62.00;97337.84;8378406;28;20324;-74
2022/11/20 09:16:09;;;;;;;27.07;21.00;;;;;;;6.25;61.15;97325.69;8415459;22;20224;-74
2022/11/20 09:20:11;;;;;;;31.30;24.73;;;;;;;6.18;61.16;97331.97;8412921;28;20228;-74
2022/11/20 09:24:14;;;;;;;30.77;23.07;;;;;;;6.28;61.32;97329.06;8417742;28;20232;-74
2022/11/20 09:28:19;;;;;;;30.93;23.67;;;;;;;6.29;61.30;97331.56;8419625;28;20223;-73
2022/11/20 09:32:21;;;;;;;28.03;21.57;;;;;;;6.18;61.72;97333.69;8419508;28;20252;-74
2022/11/20 09:36:24;;;;;;;29.83;23.77;;;;;;;6.10;61.84;97322.88;8419571;28;20224;-74
2022/11/20 09:40:30;;;;;;;32.33;25.23;;;;;;;6.29;61.81;97343.59;8419508;28;20231;-74
2022/11/20 09:44:54;;;;;;;28.37;23.37;;;;;;;6.40;62.04;97351.75;8419180;28;20496;-74
2022/11/20 09:49:06;;;;;;;27.47;21.80;;;;;;;6.29;61.38;97336.72;8418803;28;20520;-74
2022/11/20 09:53:14;;;;;;;38.50;29.97;;;;;;;6.34;61.54;97341.69;8418885;28;20232;-74
2022/11/20 09:57:20;;;;;;;33.60;26.40;;;;;;;6.30;62.55;97347.84;8418815;28;20558;-74
2022/11/20 10:01:32;;;;;;;25.80;20.57;;;;;;;6.40;61.53;97349.19;8418543;28;20285;-74
2022/11/20 10:05:40;;;;;;;25.27;19.27;;;;;;;6.34;61.89;97339.97;8418733;28;20236;-74
2022/11/20 10:09:51;;;;;;;21.60;17.63;;;;;;;6.43;62.12;97339.59;8418284;28;20232;-74
2022/11/20 10:14:00;;;;;;;24.13;19.10;;;;;;;6.36;62.49;97333.03;8417455;28;20511;-74
2022/11/20 10:18:11;;;;;;;31.70;23.80;;;;;;;5.90;62.86;97314.09;8418317;28;20557;-74
2022/11/20 10:22:27;;;;;;;30.20;22.83;;;;;;;6.16;62.46;97314.94;8417804;28;20231;-74
2022/11/20 10:26:38;;;;;;;26.13;20.03;;;;;;;6.37;62.50;97321.84;8417702;28;20220;-74
2022/11/20 10:30:43;;;;;;;25.30;16.87;;;;;;;6.44;62.40;97322.44;8417943;28;20235;-74
2022/11/20 10:34:51;;;;;;;22.60;17.90;;;;;;;6.46;62.52;97313.78;8416925;28;20228;-74
2022/11/20 10:38:58;;;;;;;26.83;21.37;;;;;;;6.05;61.72;97236.47;8417120;28;20230;-73
2022/11/20 10:43:03;;;;;;;21.87;17.50;;;;;;;6.38;61.98;97308.09;8417343;28;20235;-74
2022/11/20 10:47:06;;;;;;;22.83;18.20;;;;;;;6.43;62.38;97306.16;8417363;28;20229;-74
2022/11/20 10:51:16;;;;;;;21.93;18.17;;;;;;;6.50;62.37;97304.19;8417242;28;20424;-74
2022/11/20 10:55:28;;;;;;;22.77;18.03;;;;;;;6.44;62.48;97319.88;8416813;28;20232;-73
2022/11/20 10:59:42;;;;;;;22.80;17.40;;;;;;;6.46;61.89;97351.53;8417223;28;20227;-73
2022/11/20 11:03:45;;;;;;;19.33;15.27;;;;;;;6.44;62.03;97341.28;8416844;28;20232;-74
2022/11/20 11:07:51;;;;;;;17.70;14.43;;;;;;;6.40;61.83;97342.31;8416666;28;20232;-74
2022/11/20 11:11:54;;;;;;;18.90;15.40;;;;;;;6.45;61.83;97334.41;8416016;28;20423;-73
2022/11/20 11:15:58;;;;;;;21.93;17.20;;;;;;;6.57;62.05;97326.22;8416081;28;20236;-73
2022/11/20 11:20:02;;;;;;;21.50;17.93;;;;;;;6.74;61.54;97307.56;8416043;28;20232;-74
2022/11/20 11:24:20;;;;;;;20.57;17.07;;;;;;;7.09;60.84;97317.34;8415962;28;20468;-72
2022/11/20 11:28:43;;;;;;;21.43;16.90;;;;;;;7.66;60.29;97307.25;8415857;28;20319;-72
2022/11/20 11:32:46;;;;;;;32.90;23.33;;;;;;;7.59;60.30;97289.44;8414239;28;20236;-72
2022/11/20 11:36:54;;;;;;;27.83;20.83;;;;;;;7.46;61.08;97293.47;8415738;28;20232;-72
2022/11/20 11:40:58;;;;;;;20.33;17.47;;;;;;;8.05;60.03;97293.50;8415029;28;20266;-72
2022/11/20 11:45:07;;;;;;;20.17;16.60;;;;;;;8.40;59.32;97284.16;8414520;28;20277;-72
2022/11/20 11:49:16;;;;;;;12.73;11.27;;;;;;;8.04;59.86;97292.66;8414994;28;20299;-73
2022/11/20 11:53:21;;;;;;;10.93;9.00;;;;;;;8.03;60.36;97280.66;8414940;28;20239;-72
2022/11/20 11:57:30;;;;;;;12.53;10.97;;;;;;;7.94;61.08;97279.34;8415224;28;20231;-72
2022/11/20 12:01:40;;;;;;;10.93;9.83;;;;;;;7.98;60.59;97282.63;8414959;28;20231;-73
2022/11/20 12:05:45;;;;;;;11.10;10.00;;;;;;;7.97;60.03;97284.34;8414399;28;20239;-73
2022/11/20 12:09:54;;;;;;;10.30;9.13;;;;;;;7.76;60.73;97283.56;8414296;28;20244;-73
2022/11/20 12:14:01;;;;;;;10.27;9.10;;;;;;;7.59;61.04;97278.31;8413844;28;20520;-72
2022/11/20 12:18:09;;;;;;;8.30;7.40;;;;;;;7.60;61.37;97288.56;8414033;28;20528;-73
2022/11/20 12:22:22;;;;;;;8.10;7.00;;;;;;;7.33;61.48;97284.56;8413858;28;20239;-72
2022/11/20 12:26:36;;;;;;;12.03;6.67;;;;;;;10.82;83.75;97277.06;8413862;28;20282;-75
2022/11/20 12:30:46;;;;;;;7.90;6.03;;;;;;;11.80;65.77;97281.69;8414002;28;20226;-76
2022/11/20 12:34:56;;;;;;;6.97;5.83;;;;;;;12.03;57.15;97214.63;8413759;28;20232;-77
2022/11/20 12:39:09;;;;;;;8.60;7.70;;;;;;;10.09;55.42;97280.97;8413259;28;20416;-74
2022/11/20 12:47:51;;;;;;;10.47;8.80;;;;;;;8.90;58.10;97275.78;8413643;28;20227;-74
2022/11/20 12:52:07;;;;;;;9.63;8.40;;;;;;;8.58;59.13;97279.91;8412701;28;20228;-73
2022/11/20 12:56:18;;;;;;;9.00;7.97;;;;;;;8.35;59.91;97274.03;8412631;28;20417;-73
2022/11/20 13:00:22;;;;;;;8.50;7.60;;;;;;;8.20;60.77;97270.41;8412833;28;20230;-75
2022/11/20 13:04:36;;;;;;;9.73;8.70;;;;;;;8.15;60.45;97274.16;8412381;28;20234;-74
2022/11/20 13:08:41;;;;;;;14.47;10.80;;;;;;;8.01;60.80;97270.44;8412123;28;20253;-74
2022/11/20 13:12:47;;;;;;;21.93;15.33;;;;;;;7.54;61.04;97211.53;8412858;28;20504;-74
2022/11/20 13:16:54;;;;;;;22.27;15.27;;;;;;;7.79;61.26;97255.09;8412627;28;20236;-73
2022/11/20 13:20:59;;;;;;;18.70;16.17;;;;;;;7.81;62.04;97261.00;8412256;28;20228;-73
2022/11/20 13:25:01;;;;;;;14.90;12.10;;;;;;;7.74;61.91;97258.78;8412172;28;20228;-74
2022/11/20 13:29:10;;;;;;;13.53;11.30;;;;;;;7.71;61.91;97253.75;8412492;28;20416;-74
2022/11/20 13:33:24;;;;;;;12.90;10.17;;;;;;;7.67;62.40;97265.09;8412488;28;20247;-73
2022/11/20 13:37:37;;;;;;;13.50;11.60;;;;;;;7.64;62.28;97272.06;8413026;28;20220;-73
2022/11/20 13:41:40;;;;;;;12.67;10.40;;;;;;;7.64;62.07;97272.06;8412477;28;20281;-74
2022/11/20 13:45:43;;;;;;;11.40;9.73;;;;;;;7.55;62.19;97267.31;8412710;28;20228;-73
2022/11/20 13:49:48;;;;;;;13.27;10.83;;;;;;;7.70;62.02;97273.53;8411805;28;20231;-73
2022/11/20 13:54:12;;;;;;;12.17;9.17;;;;;;;7.70;62.02;97281.28;8412214;28;20243;-73
2022/11/20 13:58:28;;;;;;;12.17;9.33;;;;;;;7.57;61.99;97265.50;8412065;28;20223;-73
2022/11/20 14:02:31;;;;;;;11.07;8.93;;;;;;;7.66;62.44;97269.41;8412236;28;20224;-73
2022/11/20 14:06:39;;;;;;;11.17;9.37;;;;;;;7.57;62.51;97268.06;8412381;28;20551;-73
2022/11/20 14:10:44;;;;;;;11.90;9.70;;;;;;;7.48;63.55;97265.06;8414624;28;20228;-73
2022/11/20 14:14:51;;;;;;;11.47;8.73;;;;;;;7.54;62.86;97263.06;8417584;28;20243;-73
2022/11/20 14:18:54;;;;;;;10.17;8.70;;;;;;;7.61;62.87;97264.44;8417247;28;20224;-73
2022/11/20 14:22:57;;;;;;;11.77;10.10;;;;;;;7.52;62.89;97251.13;8417926;28;20235;-76
2022/11/20 14:27:01;;;;;;;14.00;10.70;;;;;;;7.47;63.03;97269.38;8417829;28;20402;-73
2022/11/20 14:31:05;;;;;;;13.63;11.93;;;;;;;7.62;63.92;97266.13;8417470;28;20224;-74
2022/11/20 14:35:12;;;;;;;17.47;15.10;;;;;;;7.68;63.71;97261.63;8416289;28;20239;-74
2022/11/20 14:39:21;;;;;;;15.27;11.57;;;;;;;7.71;62.98;97269.22;8416874;28;20220;-75
2022/11/20 14:43:27;;;;;;;15.40;11.67;;;;;;;7.60;62.84;97273.09;8417431;28;20246;-75
2022/11/20 14:47:31;;;;;;;14.63;11.10;;;;;;;7.49;63.47;97257.28;8417076;28;20520;-74
2022/11/20 14:51:38;;;;;;;12.63;10.57;;;;;;;7.51;63.43;97254.63;8417478;28;20435;-77
2022/11/20 14:55:41;;;;;;;11.70;9.77;;;;;;;7.54;63.41;97255.34;8417197;28;20228;-76
2022/11/20 14:59:46;;;;;;;11.40;9.27;;;;;;;7.55;63.41;97245.88;8416922;28;20224;-75
2022/11/20 15:04:00;;;;;;;10.50;8.80;;;;;;;7.53;63.07;97230.47;8416617;28;20228;-75
2022/11/20 15:08:10;;;;;;;10.60;8.90;;;;;;;7.45;63.57;97240.28;8416290;28;20277;-74
2022/11/20 15:12:18;;;;;;;12.00;10.33;;;;;;;7.50;63.52;97242.63;8416489;28;20228;-76
2022/11/20 15:16:24;;;;;;;11.30;9.70;;;;;;;7.56;63.53;97261.25;8416067;28;20540;-73
2022/11/20 15:20:29;;;;;;;12.47;10.03;;;;;;;7.48;63.97;97254.75;8415784;28;20235;-75
2022/11/20 15:24:32;;;;;;;13.57;12.20;;;;;;;7.47;63.98;97258.25;8415992;28;20228;-74
2022/11/20 15:28:36;;;;;;;16.87;15.00;;;;;;;7.38;64.19;97252.56;8416082;28;20294;-75
2022/11/20 15:32:41;;;;;;;11.00;9.90;;;;;;;7.55;64.14;97251.84;8415805;28;20224;-75
2022/11/20 15:36:44;;;;;;;24.83;20.13;;;;;;;7.47;64.28;97240.22;8415699;28;20235;-76
2022/11/20 15:40:46;;;;;;;15.70;13.30;;;;;;;7.47;63.85;97238.47;8415448;28;20248;-76
2022/11/20 15:44:50;;;;;;;15.30;11.20;;;;;;;7.54;63.94;97245.03;8415486;28;20243;-75
2022/11/20 15:48:55;;;;;;;9.90;8.70;;;;;;;7.59;63.82;97250.81;8414863;28;20223;-72
2022/11/20 15:52:58;;;;;;;11.27;9.20;;;;;;;7.54;64.08;97231.28;8415257;28;20217;-73
2022/11/20 15:57:02;;;;;;;25.03;21.47;;;;;;;7.46;64.51;97234.19;8414995;28;20295;-74
2022/11/20 16:01:05;;;;;;;33.27;29.47;;;;;;;7.41;64.22;97218.97;8414701;28;20251;-73
2022/11/20 16:05:12;;;;;;;27.20;22.83;;;;;;;7.53;64.37;97225.31;8414673;28;20232;-75
2022/11/20 16:09:14;;;;;;;24.43;20.53;;;;;;;7.46;64.56;97213.59;8414703;28;20228;-75
2022/11/20 16:17:43;;;;;;;20.67;16.40;;;;;;;7.49;65.62;97213.47;8414675;28;20535;-76
2022/11/20 16:21:47;;;;;;;22.47;18.07;;;;;;;7.57;64.39;97216.53;8414411;28;20285;-76
2022/11/20 16:25:50;;;;;;;26.27;20.67;;;;;;;7.50;64.75;97211.72;8414381;28;20526;-76
2022/11/20 16:29:53;;;;;;;21.77;17.83;;;;;;;7.55;65.01;97215.78;8413474;28;20224;-75
2022/11/20 16:33:57;;;;;;;18.57;16.57;;;;;;;7.61;64.98;97227.53;8413443;28;20554;-76
2022/11/20 16:38:01;;;;;;;24.53;20.47;;;;;;;7.51;65.24;97216.81;8413852;28;20228;-75
2022/11/20 16:42:05;;;;;;;23.73;20.60;;;;;;;7.55;65.18;97208.03;8413712;28;20569;-76
2022/11/20 16:46:08;;;;;;;25.53;19.60;;;;;;;7.50;64.78;97198.84;8413394;28;20355;-78
2022/11/20 16:50:11;;;;;;;25.20;19.73;;;;;;;7.50;64.89;97198.84;8413313;28;20228;-77
2022/11/20 16:54:15;;;;;;;35.70;26.37;;;;;;;7.48;65.08;97195.50;8413386;28;20465;-75
2022/11/20 16:58:23;;;;;;;28.83;24.13;;;;;;;7.33;64.89;97199.56;8413450;28;20535;-76
2022/11/20 17:02:25;;;;;;;37.20;26.93;;;;;;;7.29;64.90;97193.75;8413402;28;20223;-75
2022/11/20 17:06:30;;;;;;;38.90;29.33;;;;;;;7.11;65.20;97161.06;8413475;28;20235;-75
2022/11/20 17:10:34;;;;;;;28.40;22.70;;;;;;;7.43;65.15;97178.50;8413147;28;20232;-75
2022/11/20 17:14:37;;;;;;;22.53;19.00;;;;;;;7.01;66.12;97174.31;8412978;28;20228;-75
2022/11/20 17:18:40;;;;;;;20.50;17.90;;;;;;;7.18;65.08;97158.16;8413222;28;20225;-76
2022/11/20 17:22:43;;;;;;;22.90;20.40;;;;;;;7.12;64.92;97166.16;8413087;28;20235;-75
2022/11/20 17:26:48;;;;;;;19.53;16.47;;;;;;;7.05;64.66;97131.25;8413169;28;20277;-75
2022/11/20 17:30:51;;;;;;;25.67;20.30;;;;;;;7.11;64.32;97163.63;8413117;28;20247;-75
2022/11/20 17:34:54;;;;;;;23.20;18.40;;;;;;;7.03;65.03;97153.66;8412692;28;20448;-74
2022/11/20 17:38:56;;;;;;;26.93;19.10;;;;;;;7.07;65.18;97172.41;8412894;28;20398;-74
2022/11/20 17:43:00;;;;;;;27.90;20.83;;;;;;;6.99;64.78;97168.41;8413995;28;20235;-75
2022/11/20 17:47:03;;;;;;;27.17;21.67;;;;;;;7.05;64.32;97165.56;8419511;28;20277;-73
2022/11/20 17:51:06;;;;;;;19.80;16.97;;;;;;;7.14;64.28;97159.19;8419195;28;20520;-74
2022/11/20 17:55:09;;;;;;;16.23;13.07;;;;;;;7.13;64.13;97156.69;8419047;28;20232;-77
2022/11/20 17:59:14;;;;;;;13.97;11.53;;;;;;;7.10;64.22;97156.78;8418916;28;20240;-75
2022/11/20 18:03:16;;;;;;;19.30;15.53;;;;;;;7.10;64.30;97151.66;8418709;28;20539;-75
2022/11/20 18:07:19;;;;;;;16.87;14.07;;;;;;;7.19;63.92;97135.81;8418661;28;20438;-75
2022/11/20 18:11:24;;;;;;;15.43;13.30;;;;;;;7.04;64.45;97140.72;8418653;28;20224;-75
2022/11/20 18:15:29;;;;;;;18.90;16.07;;;;;;;7.06;64.17;97130.34;8418425;28;20251;-75
2022/11/20 18:19:34;;;;;;;17.70;15.70;;;;;;;7.10;64.57;97131.91;8418444;28;20232;-75
2022/11/20 18:23:41;;;;;;;30.53;22.23;;;;;;;7.03;64.47;97128.75;8418108;28;20224;-75
2022/11/20 18:27:44;;;;;;;31.00;22.30;;;;;;;6.98;64.28;97106.69;8417930;28;20231;-76
2022/11/20 18:31:48;;;;;;;27.20;20.57;;;;;;;7.10;63.78;97108.75;8417985;28;20220;-75
2022/11/20 18:35:51;;;;;;;24.43;20.07;;;;;;;7.03;64.31;97097.84;8417727;28;20236;-75
2022/11/20 18:39:55;;;;;;;23.63;20.50;;;;;;;7.09;64.46;97094.19;8417178;28;20462;-74
2022/11/20 18:48:19;;;;;;;19.10;15.30;;;;;;;7.52;69.85;97094.81;8417631;28;20228;-75
2022/11/20 18:52:24;;;;;;;21.60;17.03;;;;;;;7.44;64.76;97086.59;8417674;28;20228;-74
2022/11/20 18:56:27;;;;;;;19.00;15.70;;;;;;;7.39;64.07;97071.38;8416793;28;20307;-75
2022/11/20 19:00:30;;;;;;;20.93;16.80;;;;;;;7.35;64.30;97064.69;8417360;28;20220;-75
2022/11/20 19:04:34;;;;;;;20.53;15.63;;;;;;;7.37;64.44;97062.03;8417041;28;20227;-74
2022/11/20 19:08:37;;;;;;;55.03;32.50;;;;;;;7.32;64.78;97061.41;8416633;28;20224;-74
2022/11/20 19:12:40;;;;;;;40.10;28.33;;;;;;;7.29;64.90;97056.38;8416832;28;20265;-74
2022/11/20 19:16:43;;;;;;;18.63;15.23;;;;;;;7.38;64.70;97053.41;8416562;28;20232;-75
2022/11/20 19:20:47;;;;;;;18.70;15.10;;;;;;;7.40;64.48;97052.41;8416550;28;20231;-74
2022/11/20 19:24:50;;;;;;;20.93;16.67;;;;;;;7.31;65.06;97041.69;8416338;28;20277;-75